Time;durP1;ratioP1;P1;durP2;ratioP2;P2;SDS_P1;SDS_P2;PMS_P1;PMS_P2;Temp;Humidity;BMP_temperature;BMP_pressure;BME280_temperature;BME280_humidity;BME280_pressure;Samples;Min_cycle;Max_cycle;Signal;HPM_P1;HPM_P2
2022/08/07 00:01:57;;;;;;;7.63;6.83;;;12.50;99.90;;;;;;4179800;28;20208;-74
2022/08/07 00:03:59;;;;;;;6.63;6.03;;;12.40;99.90;;;;;;4181828;28;20172;-75
2022/08/07 00:05:59;;;;;;;7.70;6.20;;;12.40;99.90;;;;;;4181748;28;20187;-75
2022/08/07 00:08:00;;;;;;;8.37;6.83;;;12.50;99.90;;;;;;4173774;28;20185;-75
2022/08/07 00:10:00;;;;;;;7.97;6.63;;;12.50;99.90;;;;;;4165413;28;20208;-74
2022/08/07 00:12:01;;;;;;;8.17;7.00;;;12.40;99.90;;;;;;4163354;28;20201;-76
2022/08/07 00:14:02;;;;;;;7.77;6.97;;;12.30;99.90;;;;;;4165000;28;20187;-74
2022/08/07 00:16:05;;;;;;;9.27;8.37;;;12.40;99.90;;;;;;4165416;28;20890;-75
2022/08/07 00:18:08;;;;;;;8.43;7.50;;;12.50;99.90;;;;;;4164228;28;20227;-75
2022/08/07 00:20:09;;;;;;;8.77;7.87;;;12.60;99.90;;;;;;4165365;28;20191;-75
2022/08/07 00:22:09;;;;;;;9.17;8.27;;;12.70;99.90;;;;;;4165067;28;20721;-74
2022/08/07 00:24:10;;;;;;;7.80;6.57;;;12.80;99.90;;;;;;4164799;28;20178;-75
2022/08/07 00:26:11;;;;;;;6.57;5.97;;;12.90;99.90;;;;;;4165203;28;20177;-75
2022/08/07 00:28:12;;;;;;;8.67;6.37;;;12.90;99.90;;;;;;4165137;28;20170;-74
2022/08/07 00:30:12;;;;;;;7.30;6.50;;;12.70;99.90;;;;;;4164343;28;20201;-75
2022/08/07 00:32:13;;;;;;;7.37;6.60;;;12.70;99.90;;;;;;4164699;28;20677;-77
2022/08/07 00:34:14;;;;;;;7.13;6.30;;;12.60;99.90;;;;;;4163416;28;20666;-74
2022/08/07 00:36:14;;;;;;;7.63;6.83;;;12.50;99.90;;;;;;4164888;28;20205;-75
2022/08/07 00:38:15;;;;;;;7.57;6.77;;;12.50;99.90;;;;;;4164978;28;20173;-76
2022/08/07 00:40:15;;;;;;;7.57;6.77;;;12.40;99.90;;;;;;4164347;28;20598;-75
2022/08/07 00:42:16;;;;;;;8.57;7.70;;;12.50;99.90;;;;;;4164624;28;20208;-75
2022/08/07 00:44:17;;;;;;;7.37;6.67;;;12.40;99.90;;;;;;4163581;28;20188;-75
2022/08/07 00:46:17;;;;;;;7.20;6.20;;;12.40;99.90;;;;;;4163268;28;20246;-75
2022/08/07 00:48:18;;;;;;;8.83;7.07;;;12.30;99.90;;;;;;4164796;28;20228;-74
2022/08/07 00:50:19;;;;;;;10.80;8.43;;;12.30;99.90;;;;;;4164037;28;20188;-74
2022/08/07 00:52:19;;;;;;;8.30;7.50;;;12.30;99.90;;;;;;4164422;28;20211;-75
2022/08/07 00:54:20;;;;;;;8.40;7.00;;;12.30;99.90;;;;;;4164485;28;20212;-75
2022/08/07 00:56:22;;;;;;;9.17;6.20;;;12.20;99.90;;;;;;4164472;28;20189;-74
2022/08/07 00:58:23;;;;;;;7.43;6.73;;;12.20;99.90;;;;;;4163277;28;20195;-73
2022/08/07 01:00:24;;;;;;;8.63;7.77;;;12.10;99.90;;;;;;4163648;28;20717;-75
2022/08/07 01:02:25;;;;;;;7.77;7.00;;;12.10;99.90;;;;;;4164169;28;20232;-74
2022/08/07 01:04:25;;;;;;;9.17;7.77;;;12.00;99.90;;;;;;4164356;28;20184;-75
2022/08/07 01:06:28;;;;;;;9.83;6.87;;;12.00;99.90;;;;;;4164519;28;20189;-76
2022/08/07 01:08:28;;;;;;;8.90;7.57;;;12.00;99.90;;;;;;4162919;28;20192;-75
2022/08/07 01:10:29;;;;;;;8.60;7.80;;;12.10;99.90;;;;;;4165836;28;20315;-74
2022/08/07 01:12:30;;;;;;;8.80;7.90;;;12.00;99.90;;;;;;4178514;28;20239;-75
2022/08/07 01:14:31;;;;;;;10.10;9.00;;;12.00;99.90;;;;;;4179893;28;20247;-75
2022/08/07 01:16:32;;;;;;;8.90;7.47;;;12.00;99.90;;;;;;4180493;28;20181;-75
2022/08/07 01:18:33;;;;;;;10.30;9.10;;;12.00;99.90;;;;;;4180365;28;20638;-75
2022/08/07 01:20:40;;;;;;;10.37;8.03;;;12.00;99.90;;;;;;4179736;28;20188;-75
2022/08/07 01:22:41;;;;;;;10.90;8.43;;;12.00;99.90;;;;;;4180346;28;20635;-74
2022/08/07 01:24:43;;;;;;;9.00;8.07;;;12.00;99.90;;;;;;4180369;28;20185;-75
2022/08/07 01:26:44;;;;;;;9.30;8.10;;;11.90;99.90;;;;;;4179016;28;20192;-74
2022/08/07 01:28:50;;;;;;;11.33;8.27;;;11.80;99.90;;;;;;4180087;28;20188;-74
2022/08/07 01:30:52;;;;;;;9.63;8.63;;;11.80;99.90;;;;;;4179460;28;20673;-75
2022/08/07 01:32:53;;;;;;;9.03;7.63;;;11.70;99.90;;;;;;4180484;28;20223;-75
2022/08/07 01:34:54;;;;;;;9.33;8.27;;;11.70;99.90;;;;;;4180109;28;20855;-75
2022/08/07 01:36:55;;;;;;;9.60;7.83;;;11.70;99.90;;;;;;4180121;28;20280;-75
2022/08/07 01:38:56;;;;;;;8.43;7.53;;;11.70;99.90;;;;;;4180228;28;20189;-74
2022/08/07 01:40:59;;;;;;;12.57;8.93;;;11.70;99.90;;;;;;4179354;28;20211;-75
2022/08/07 01:43:00;;;;;;;9.33;8.43;;;11.70;99.90;;;;;;4180182;28;20692;-74
2022/08/07 01:45:02;;;;;;;10.40;8.93;;;11.70;99.90;;;;;;4178659;28;20224;-75
2022/08/07 01:47:03;;;;;;;9.10;8.23;;;11.70;99.90;;;;;;4179983;28;20188;-75
2022/08/07 01:49:04;;;;;;;9.43;8.50;;;11.70;99.90;;;;;;4180166;28;20184;-74
2022/08/07 01:51:11;;;;;;;9.87;8.77;;;11.60;99.90;;;;;;4178336;28;20696;-77
2022/08/07 01:53:13;;;;;;;8.80;7.90;;;11.60;99.90;;;;;;4180459;28;20234;-73
2022/08/07 01:55:15;;;;;;;8.93;7.53;;;11.70;99.90;;;;;;4179818;28;20211;-74
2022/08/07 01:57:30;;;;;;;8.97;8.07;;;11.60;99.90;;;;;;4179744;28;20241;-75
2022/08/07 01:59:59;;;;;;;8.13;7.33;;;11.50;99.90;;;;;;4178573;28;20922;-75
2022/08/07 02:02:10;;;;;;;9.53;7.67;;;11.50;99.90;;;;;;4162122;28;20224;-75
2022/08/07 02:04:22;;;;;;;7.37;6.67;;;11.50;99.90;;;;;;4162239;28;20251;-75
2022/08/07 02:06:25;;;;;;;9.40;7.00;;;11.50;99.90;;;;;;4163399;28;20594;-75
2022/08/07 02:08:28;;;;;;;8.77;6.50;;;11.50;99.90;;;;;;4163283;28;20192;-73
2022/08/07 02:10:31;;;;;;;8.23;6.97;;;11.40;99.90;;;;;;4161242;28;20430;-75
2022/08/07 02:12:36;;;;;;;8.60;7.20;;;11.40;99.90;;;;;;4163302;28;20355;-75
2022/08/07 02:14:37;;;;;;;8.40;7.30;;;11.40;99.90;;;;;;4163396;28;20197;-75
2022/08/07 02:16:39;;;;;;;9.73;7.80;;;11.40;99.90;;;;;;4163251;28;20688;-74
2022/08/07 02:18:41;;;;;;;8.80;7.90;;;11.40;99.90;;;;;;4166149;28;20203;-75
2022/08/07 02:20:43;;;;;;;9.20;7.73;;;11.30;99.90;;;;;;4180232;28;20222;-75
2022/08/07 02:22:46;;;;;;;9.03;8.10;;;11.40;99.90;;;;;;4180317;28;20206;-73
2022/08/07 02:24:49;;;;;;;9.83;8.23;;;11.40;99.90;;;;;;4179560;28;20195;-74
2022/08/07 02:26:50;;;;;;;9.30;7.37;;;11.30;99.90;;;;;;4178426;28;20195;-75
2022/08/07 02:28:52;;;;;;;8.40;6.77;;;11.20;99.90;;;;;;4179489;28;20194;-74
2022/08/07 02:30:54;;;;;;;8.00;7.20;;;11.20;99.90;;;;;;4178835;28;20931;-74
2022/08/07 02:32:58;;;;;;;7.03;5.70;;;11.20;99.90;;;;;;4178239;28;20227;-75
2022/08/07 02:34:59;;;;;;;8.50;5.83;;;11.20;99.90;;;;;;4177890;28;20255;-75
2022/08/07 02:37:02;;;;;;;6.17;5.57;;;11.20;99.90;;;;;;4192420;28;20612;-75
2022/08/07 02:39:05;;;;;;;6.63;5.23;;;11.10;99.90;;;;;;4179433;28;20173;-75
2022/08/07 02:41:06;;;;;;;4.63;4.23;;;11.10;99.90;;;;;;4178892;28;20193;-75
2022/08/07 02:43:07;;;;;;;6.03;4.60;;;11.10;99.90;;;;;;4178133;28;20184;-76
2022/08/07 02:45:12;;;;;;;6.10;4.20;;;11.10;99.90;;;;;;4177706;28;20571;-75
2022/08/07 02:47:14;;;;;;;5.10;4.57;;;11.00;99.90;;;;;;4179118;28;20195;-74
2022/08/07 02:49:15;;;;;;;4.93;3.40;;;11.00;99.90;;;;;;4178899;28;20187;-75
2022/08/07 02:51:18;;;;;;;4.23;3.83;;;10.90;99.90;;;;;;4177088;28;20208;-75
2022/08/07 02:53:32;;;;;;;3.80;3.50;;;10.90;99.90;;;;;;4179143;28;20200;-74
2022/08/07 02:55:36;;;;;;;4.07;3.67;;;10.90;99.90;;;;;;4178892;28;20297;-75
2022/08/07 02:57:39;;;;;;;4.17;3.43;;;10.80;99.90;;;;;;4178931;28;20220;-75
2022/08/07 02:59:47;;;;;;;4.60;3.40;;;10.80;99.90;;;;;;4178868;28;20188;-74
2022/08/07 03:01:48;;;;;;;3.70;3.30;;;10.70;99.90;;;;;;4178270;28;20237;-75
2022/08/07 03:03:49;;;;;;;4.20;3.23;;;10.70;99.90;;;;;;4178896;28;20269;-74
2022/08/07 03:05:52;;;;;;;3.20;2.90;;;10.60;99.90;;;;;;4178893;28;20192;-74
2022/08/07 03:07:54;;;;;;;5.80;3.40;;;10.70;99.90;;;;;;4177640;28;20195;-74
2022/08/07 03:09:55;;;;;;;3.10;2.80;;;10.70;99.90;;;;;;4178919;28;20271;-75
2022/08/07 03:11:57;;;;;;;3.13;2.90;;;10.60;99.90;;;;;;4176932;28;20207;-75
2022/08/07 03:13:58;;;;;;;3.53;2.70;;;10.60;99.90;;;;;;4178501;28;20203;-74
2022/08/07 03:15:59;;;;;;;3.50;2.90;;;10.60;99.90;;;;;;4178952;28;20705;-74
2022/08/07 03:18:00;;;;;;;3.33;2.47;;;10.60;99.90;;;;;;4178920;28;20246;-74
2022/08/07 03:20:01;;;;;;;3.80;3.30;;;10.60;99.90;;;;;;4179023;28;20188;-75
2022/08/07 03:22:04;;;;;;;5.03;2.90;;;10.50;99.90;;;;;;4178231;28;20241;-74
2022/08/07 03:24:05;;;;;;;3.20;2.90;;;10.50;99.90;;;;;;4178963;28;20329;-77
2022/08/07 03:26:08;;;;;;;3.60;2.87;;;10.50;99.90;;;;;;4179127;28;20195;-75
2022/08/07 03:28:11;;;;;;;3.30;3.00;;;10.50;99.90;;;;;;4178750;28;20187;-75
2022/08/07 03:30:12;;;;;;;3.43;3.13;;;10.50;99.90;;;;;;4178158;28;20735;-74
2022/08/07 03:32:15;;;;;;;3.87;3.10;;;10.40;99.90;;;;;;4178489;28;20213;-75
2022/08/07 03:34:18;;;;;;;4.40;3.43;;;10.50;99.90;;;;;;4178595;28;20196;-75
2022/08/07 03:36:20;;;;;;;4.17;3.17;;;10.40;99.90;;;;;;4179441;28;20184;-74
2022/08/07 03:38:21;;;;;;;4.33;3.73;;;10.50;99.90;;;;;;4182098;28;20247;-74
2022/08/07 03:40:22;;;;;;;4.50;4.07;;;10.40;99.90;;;;;;4181387;28;20187;-75
2022/08/07 03:42:24;;;;;;;4.13;3.73;;;10.50;99.90;;;;;;4182006;28;20273;-75
2022/08/07 03:44:26;;;;;;;4.77;4.07;;;10.50;99.90;;;;;;4181917;28;20210;-74
2022/08/07 03:46:28;;;;;;;4.13;3.43;;;10.50;99.90;;;;;;4180573;28;20191;-73
2022/08/07 03:48:30;;;;;;;4.90;3.80;;;10.50;99.90;;;;;;4180390;28;20465;-74
2022/08/07 03:50:34;;;;;;;6.13;3.80;;;10.50;99.90;;;;;;4181340;28;20183;-74
2022/08/07 03:52:36;;;;;;;4.10;3.63;;;10.40;99.90;;;;;;4182104;28;20202;-73
2022/08/07 03:54:37;;;;;;;3.80;3.50;;;10.50;99.90;;;;;;4181618;28;20208;-73
2022/08/07 03:56:39;;;;;;;4.10;3.70;;;10.50;99.90;;;;;;4181916;28;20534;-75
2022/08/07 03:58:40;;;;;;;5.90;3.87;;;10.40;99.90;;;;;;4180484;28;20578;-75
2022/08/07 04:00:42;;;;;;;4.70;4.03;;;10.50;99.90;;;;;;4181060;28;20186;-75
2022/08/07 04:02:43;;;;;;;4.63;3.53;;;10.40;99.90;;;;;;4180153;28;20218;-74
2022/08/07 04:04:44;;;;;;;6.03;3.60;;;10.40;99.90;;;;;;4181622;28;20218;-75
2022/08/07 04:06:45;;;;;;;4.30;3.13;;;10.40;99.90;;;;;;4181568;28;20606;-74
2022/08/07 04:08:46;;;;;;;3.27;2.97;;;10.30;99.50;;;;;;4167946;28;20231;-74
2022/08/07 04:10:48;;;;;;;3.80;3.50;;;10.30;99.10;;;;;;4164849;28;20688;-72
2022/08/07 04:12:49;;;;;;;4.17;3.00;;;10.20;98.80;;;;;;4165266;28;20208;-75
2022/08/07 04:14:51;;;;;;;3.50;3.00;;;10.20;98.90;;;;;;4163937;28;20216;-74
2022/08/07 04:16:52;;;;;;;3.27;2.97;;;10.20;99.00;;;;;;4163996;28;20224;-74
2022/08/07 04:18:53;;;;;;;3.70;3.40;;;10.20;99.30;;;;;;4165131;28;20187;-74
2022/08/07 04:20:54;;;;;;;5.97;3.83;;;10.20;99.30;;;;;;4166045;28;20191;-74
2022/08/07 04:22:54;;;;;;;4.00;3.60;;;10.20;99.80;;;;;;4167596;28;20230;-74
2022/08/07 04:24:58;;;;;;;5.33;3.87;;;10.20;99.90;;;;;;4165371;28;20187;-73
2022/08/07 04:27:01;;;;;;;6.17;4.17;;;10.30;99.90;;;;;;4165378;28;20645;-74
2022/08/07 04:29:02;;;;;;;6.73;3.83;;;10.30;99.90;;;;;;4165214;28;20186;-74
2022/08/07 04:31:03;;;;;;;5.47;3.90;;;10.30;99.90;;;;;;4165272;28;20242;-74
2022/08/07 04:33:09;;;;;;;4.43;3.90;;;10.20;99.90;;;;;;4170913;28;20193;-73
2022/08/07 04:35:10;;;;;;;4.33;3.93;;;10.20;99.90;;;;;;4181560;28;20214;-74
2022/08/07 04:37:10;;;;;;;4.67;3.90;;;10.20;99.90;;;;;;4180127;28;20191;-74
2022/08/07 04:39:11;;;;;;;5.10;3.37;;;10.30;99.90;;;;;;4180826;28;20190;-74
2022/08/07 04:41:11;;;;;;;5.63;3.73;;;10.40;99.90;;;;;;4180066;28;20250;-74
2022/08/07 04:43:16;;;;;;;4.60;3.40;;;10.40;99.80;;;;;;4180867;28;20178;-73
2022/08/07 04:45:17;;;;;;;4.50;2.93;;;10.30;99.90;;;;;;4180979;28;20210;-74
2022/08/07 04:47:33;;;;;;;4.00;3.60;;;10.40;99.90;;;;;;4180480;28;20284;-74
2022/08/07 04:49:58;;;;;;;4.03;3.40;;;10.40;99.90;;;;;;4180710;28;20681;-74
2022/08/07 04:52:04;;;;;;;3.83;2.97;;;10.40;99.90;;;;;;4179052;28;20234;-73
2022/08/07 04:54:40;;;;;;;4.10;2.60;;;10.40;98.90;;;;;;4179404;28;20211;-74
2022/08/07 04:56:44;;;;;;;3.77;2.60;;;10.40;97.70;;;;;;4189905;28;20214;-73
2022/08/07 04:58:51;;;;;;;3.77;2.50;;;10.40;98.30;;;;;;4180466;28;20213;-73
2022/08/07 05:01:19;;;;;;;3.23;2.80;;;10.40;97.50;;;;;;4178792;28;20191;-74
2022/08/07 05:03:26;;;;;;;2.57;2.37;;;10.40;97.20;;;;;;4179210;28;20589;-73
2022/08/07 05:05:36;;;;;;;6.33;3.03;;;10.40;97.10;;;;;;4179096;28;20207;-72
2022/08/07 05:07:46;;;;;;;2.40;2.20;;;10.40;97.40;;;;;;4180368;28;20258;-74
2022/08/07 05:09:52;;;;;;;2.60;2.40;;;10.40;97.50;;;;;;4180514;28;20635;-74
2022/08/07 05:11:54;;;;;;;2.60;2.10;;;10.50;97.10;;;;;;4178263;28;20790;-74
2022/08/07 05:13:59;;;;;;;2.83;2.63;;;10.40;97.30;;;;;;4179044;28;20305;-74
2022/08/07 05:16:02;;;;;;;4.80;3.20;;;10.50;97.70;;;;;;4180191;28;20238;-74
2022/08/07 05:18:06;;;;;;;3.63;2.53;;;10.60;97.80;;;;;;4180136;28;20216;-74
2022/08/07 05:20:10;;;;;;;4.77;2.80;;;10.70;97.80;;;;;;4180110;28;20188;-74
2022/08/07 05:22:13;;;;;;;2.77;2.50;;;10.80;97.50;;;;;;4179658;28;20219;-73
2022/08/07 05:24:18;;;;;;;4.13;2.80;;;10.90;97.00;;;;;;4180145;28;20558;-74
2022/08/07 05:26:21;;;;;;;3.03;2.73;;;11.00;96.60;;;;;;4180081;28;20222;-74
2022/08/07 05:28:23;;;;;;;3.70;2.67;;;11.10;96.20;;;;;;4180104;28;20191;-73
2022/08/07 05:30:25;;;;;;;2.70;2.50;;;11.20;96.10;;;;;;4179164;28;20207;-74
2022/08/07 05:32:26;;;;;;;2.60;2.30;;;11.40;95.90;;;;;;4179926;28;20227;-74
2022/08/07 05:34:27;;;;;;;2.83;2.63;;;11.50;93.60;;;;;;4178427;28;20279;-74
2022/08/07 05:36:30;;;;;;;2.43;2.23;;;11.70;93.20;;;;;;4178551;28;20188;-74
2022/08/07 05:38:31;;;;;;;2.47;2.20;;;11.80;92.80;;;;;;4179862;28;20208;-74
2022/08/07 05:40:35;;;;;;;5.10;2.50;;;11.90;92.60;;;;;;4179418;28;20593;-73
2022/08/07 05:42:36;;;;;;;3.77;2.50;;;12.00;92.00;;;;;;4178560;28;20204;-74
2022/08/07 05:44:39;;;;;;;3.23;2.83;;;12.10;91.30;;;;;;4179760;28;20199;-74
2022/08/07 05:46:41;;;;;;;3.43;2.40;;;12.10;91.50;;;;;;4179714;28;20196;-75
2022/08/07 05:48:42;;;;;;;2.77;2.33;;;12.10;91.50;;;;;;4179706;28;20706;-75
2022/08/07 05:50:43;;;;;;;2.10;2.00;;;12.10;91.20;;;;;;4179112;28;20572;-74
2022/08/07 05:52:44;;;;;;;4.13;2.10;;;12.20;91.10;;;;;;4179786;28;20196;-73
2022/08/07 05:54:44;;;;;;;2.57;2.37;;;12.20;90.70;;;;;;4179697;28;20829;-74
2022/08/07 05:56:46;;;;;;;2.50;2.13;;;12.20;90.40;;;;;;4179732;28;20187;-74
2022/08/07 05:58:48;;;;;;;2.20;2.10;;;12.20;90.80;;;;;;4179098;28;20184;-73
2022/08/07 06:00:50;;;;;;;2.83;2.30;;;12.20;90.60;;;;;;4178849;28;20172;-74
2022/08/07 06:02:52;;;;;;;3.10;2.70;;;12.20;90.10;;;;;;4178143;28;20684;-74
2022/08/07 06:04:57;;;;;;;3.40;2.30;;;12.20;90.50;;;;;;4179636;28;20220;-74
2022/08/07 06:07:02;;;;;;;2.23;2.03;;;12.20;90.20;;;;;;4179621;28;20192;-73
2022/08/07 06:09:04;;;;;;;4.50;2.67;;;12.30;89.80;;;;;;4179438;28;20219;-75
2022/08/07 06:11:05;;;;;;;2.60;2.40;;;12.40;90.20;;;;;;4178745;28;20189;-75
2022/08/07 06:13:05;;;;;;;3.60;2.67;;;12.40;90.20;;;;;;4178087;28;20671;-75
2022/08/07 06:15:10;;;;;;;3.13;2.30;;;12.40;90.40;;;;;;4165040;28;20219;-74
2022/08/07 06:17:13;;;;;;;4.60;2.63;;;12.50;90.20;;;;;;4163323;28;20188;-74
2022/08/07 06:19:15;;;;;;;2.67;2.47;;;12.50;90.80;;;;;;4162663;28;20677;-74
2022/08/07 06:21:16;;;;;;;2.70;2.50;;;12.70;90.40;;;;;;4163169;28;20624;-75
2022/08/07 06:23:17;;;;;;;3.77;3.47;;;12.80;91.00;;;;;;4162939;28;20200;-74
2022/08/07 06:25:18;;;;;;;3.37;3.07;;;12.70;91.00;;;;;;4162857;28;20197;-75
2022/08/07 06:27:22;;;;;;;3.43;3.00;;;12.70;91.40;;;;;;4162657;28;20265;-73
2022/08/07 06:29:27;;;;;;;3.30;3.03;;;12.90;91.00;;;;;;4162706;28;20192;-74
2022/08/07 06:31:28;;;;;;;3.80;3.00;;;12.90;91.40;;;;;;4162131;28;20589;-74
2022/08/07 06:33:28;;;;;;;4.23;3.90;;;13.10;91.20;;;;;;4162666;28;20196;-74
2022/08/07 06:35:29;;;;;;;3.93;3.53;;;13.10;91.30;;;;;;4162652;28;20280;-74
2022/08/07 06:37:29;;;;;;;4.23;3.83;;;13.20;91.40;;;;;;4162808;28;20287;-74
2022/08/07 06:39:33;;;;;;;4.63;3.73;;;13.30;91.40;;;;;;4162650;28;20688;-74
2022/08/07 06:41:46;;;;;;;3.77;3.47;;;13.50;90.90;;;;;;4162140;28;20227;-74
2022/08/07 06:43:48;;;;;;;5.37;4.73;;;13.70;90.80;;;;;;4162594;28;20219;-74
2022/08/07 06:45:49;;;;;;;10.23;9.33;;;14.00;91.60;;;;;;4162656;28;20199;-74
2022/08/07 06:47:50;;;;;;;5.93;5.37;;;14.00;90.40;;;;;;4161170;28;20197;-74
2022/08/07 06:49:50;;;;;;;5.63;5.17;;;14.00;90.80;;;;;;4162620;28;20213;-75
2022/08/07 06:51:53;;;;;;;8.77;8.17;;;14.10;90.80;;;;;;4161808;28;20201;-73
2022/08/07 06:53:56;;;;;;;5.83;5.33;;;14.30;91.20;;;;;;4162565;28;20741;-74
2022/08/07 06:55:58;;;;;;;20.07;18.87;;;14.50;90.90;;;;;;4160901;28;20801;-75
2022/08/07 06:58:01;;;;;;;8.30;7.60;;;14.60;91.30;;;;;;4162321;28;20258;-74
2022/08/07 07:00:04;;;;;;;6.87;6.17;;;14.70;91.20;;;;;;4162431;28;20181;-74
2022/08/07 07:02:14;;;;;;;7.27;6.60;;;14.80;90.90;;;;;;4161637;28;20786;-74
2022/08/07 07:04:16;;;;;;;5.90;5.37;;;14.80;90.90;;;;;;4160983;28;20702;-74
2022/08/07 07:06:17;;;;;;;6.23;5.73;;;14.90;90.20;;;;;;4161054;28;20189;-75
2022/08/07 07:08:23;;;;;;;13.80;12.73;;;15.00;88.80;;;;;;4162378;28;20184;-73
2022/08/07 07:10:34;;;;;;;4.40;4.00;;;15.10;89.50;;;;;;4161565;28;20886;-74
2022/08/07 07:12:49;;;;;;;8.00;6.87;;;15.30;88.00;;;;;;4162362;28;20208;-75
2022/08/07 07:15:21;;;;;;;4.57;4.17;;;15.50;87.30;;;;;;4161206;28;20215;-73
2022/08/07 07:17:44;;;;;;;6.20;5.73;;;15.70;86.60;;;;;;4162215;28;20180;-74
2022/08/07 07:19:49;;;;;;;5.40;4.63;;;15.80;85.90;;;;;;4162317;28;20246;-74
2022/08/07 07:21:53;;;;;;;6.10;5.60;;;15.80;85.80;;;;;;4160275;28;20213;-74
2022/08/07 07:23:54;;;;;;;5.47;4.93;;;15.90;84.50;;;;;;4161119;28;20181;-75
2022/08/07 07:26:04;;;;;;;84.30;66.33;;;16.00;83.00;;;;;;4170721;28;20183;-74
2022/08/07 07:28:54;;;;;;;5.30;4.87;;;15.90;82.20;;;;;;4178851;28;20180;-75
2022/08/07 07:31:27;;;;;;;14.40;13.40;;;15.90;83.10;;;;;;4167561;28;20247;-74
2022/08/07 07:33:30;;;;;;;5.20;4.63;;;16.00;82.40;;;;;;4174072;28;20242;-75
2022/08/07 07:35:34;;;;;;;12.57;11.73;;;16.20;81.50;;;;;;4178562;28;20572;-74
2022/08/07 07:37:38;;;;;;;6.97;6.50;;;16.10;81.60;;;;;;4178782;28;20184;-74
2022/08/07 07:39:40;;;;;;;4.10;3.80;;;16.20;81.60;;;;;;4178510;28;20195;-75
2022/08/07 07:41:43;;;;;;;12.20;11.27;;;16.40;78.20;;;;;;4178493;28;20689;-74
2022/08/07 07:43:47;;;;;;;5.90;5.27;;;16.60;76.90;;;;;;4178589;28;20177;-75
2022/08/07 07:45:49;;;;;;;12.93;11.73;;;16.60;77.10;;;;;;4178554;28;20601;-75
2022/08/07 07:47:52;;;;;;;339.50;159.17;;;16.60;75.60;;;;;;4177074;28;20624;-75
2022/08/07 07:49:53;;;;;;;8.93;8.20;;;16.70;76.40;;;;;;4177286;28;20250;-75
2022/08/07 07:51:56;;;;;;;320.33;214.47;;;16.60;77.30;;;;;;4178085;28;20798;-74
2022/08/07 07:53:58;;;;;;;12.83;11.60;;;16.90;74.60;;;;;;4178544;28;20188;-75
2022/08/07 07:56:00;;;;;;;7.20;6.60;;;16.90;75.20;;;;;;4177239;28;20224;-74
2022/08/07 07:58:02;;;;;;;8.70;8.00;;;17.20;73.90;;;;;;4178534;28;20180;-73
2022/08/07 08:00:04;;;;;;;102.70;80.73;;;17.20;72.90;;;;;;4178429;28;20185;-73
2022/08/07 08:02:05;;;;;;;5.50;5.00;;;17.10;72.60;;;;;;4178121;28;20201;-74
2022/08/07 08:04:07;;;;;;;5.20;4.70;;;17.10;73.70;;;;;;4178547;28;20299;-74
2022/08/07 08:06:08;;;;;;;9.30;8.53;;;17.30;72.50;;;;;;4178428;28;20184;-74
2022/08/07 08:08:10;;;;;;;8.70;8.10;;;17.50;71.40;;;;;;4178596;28;20216;-74
2022/08/07 08:10:14;;;;;;;6.97;6.37;;;17.60;71.70;;;;;;4178144;28;20218;-74
2022/08/07 08:12:15;;;;;;;4.00;3.67;;;17.80;71.50;;;;;;4178180;28;20580;-74
2022/08/07 08:14:16;;;;;;;92.80;65.10;;;17.90;70.30;;;;;;4178524;28;20208;-74
2022/08/07 08:16:20;;;;;;;9.47;8.83;;;18.00;68.70;;;;;;4177178;28;20184;-73
2022/08/07 08:18:23;;;;;;;70.43;34.90;;;17.80;69.10;;;;;;4172128;28;20211;-75
2022/08/07 08:20:26;;;;;;;30.07;26.00;;;17.80;70.50;;;;;;4161310;28;20665;-75
2022/08/07 08:27:14;;;;;;;60.20;34.57;;;18.00;69.00;;;;;;4165025;28;20434;-74
2022/08/07 08:29:16;;;;;;;16.90;15.77;;;18.40;68.40;;;;;;4164919;28;20181;-76
2022/08/07 08:31:25;;;;;;;3.73;3.43;;;18.60;66.50;;;;;;4163834;28;20678;-74
2022/08/07 08:33:33;;;;;;;8.37;7.63;;;18.90;65.70;;;;;;4163927;28;20165;-73
2022/08/07 08:35:36;;;;;;;18.40;17.10;;;19.00;64.40;;;;;;4163503;28;20226;-74
2022/08/07 08:37:37;;;;;;;37.47;34.43;;;18.80;63.30;;;;;;4163401;28;20185;-74
2022/08/07 08:39:39;;;;;;;33.63;30.87;;;18.90;63.00;;;;;;4164637;28;20192;-73
2022/08/07 08:41:57;;;;;;;135.40;105.97;;;19.00;62.80;;;;;;4164215;28;20201;-76
2022/08/07 08:44:10;;;;;;;4.00;3.70;;;19.10;61.30;;;;;;4163234;28;20176;-74
2022/08/07 08:46:20;;;;;;;14.63;13.60;;;19.20;61.20;;;;;;4164620;28;20189;-73
2022/08/07 08:48:39;;;;;;;6.30;5.90;;;19.10;61.70;;;;;;4163417;28;20705;-72
2022/08/07 08:50:49;;;;;;;37.07;34.20;;;19.20;60.60;;;;;;4162609;28;20649;-73
2022/08/07 08:53:12;;;;;;;19.73;17.90;;;19.00;60.80;;;;;;4163063;28;20240;-73
2022/08/07 08:55:34;;;;;;;13.73;12.70;;;18.90;61.00;;;;;;4163237;28;20209;-76
2022/08/07 08:57:47;;;;;;;50.47;14.00;;;19.20;60.00;;;;;;4170113;28;20190;-75
2022/08/07 09:00:12;;;;;;;233.33;207.97;;;19.20;60.00;;;;;;4179204;28;20176;-71
2022/08/07 09:02:50;;;;;;;5.60;5.30;;;19.20;59.70;;;;;;4179656;28;20839;-76
2022/08/07 09:05:00;;;;;;;11.30;10.50;;;19.40;59.20;;;;;;4165974;28;20193;-77
2022/08/07 09:07:13;;;;;;;62.57;56.87;;;19.70;58.10;;;;;;4166658;28;20207;-77
2022/08/07 09:09:36;;;;;;;22.20;20.67;;;19.90;58.10;;;;;;4180387;28;20187;-77
2022/08/07 09:12:04;;;;;;;14.00;12.80;;;19.80;57.30;;;;;;4163613;28;20213;-73
2022/08/07 09:14:34;;;;;;;78.33;71.23;;;20.10;55.90;;;;;;4180544;28;20619;-78
2022/08/07 09:17:01;;;;;;;14.93;13.73;;;20.00;57.50;;;;;;4148177;28;20182;-76
2022/08/07 09:19:40;;;;;;;17.27;15.83;;;20.20;56.50;;;;;;4167494;28;20181;-80
2022/08/07 09:22:25;;;;;;;55.73;52.03;;;20.00;56.20;;;;;;4183945;28;20242;-79
2022/08/07 09:24:38;;;;;;;12.13;11.37;;;20.30;55.70;;;;;;4183100;28;20192;-78
2022/08/07 09:26:43;;;;;;;12.13;11.13;;;20.60;54.10;;;;;;4167651;28;20181;-77
2022/08/07 09:28:53;;;;;;;3.27;3.07;;;20.80;53.30;;;;;;4180331;28;20267;-75
2022/08/07 09:31:07;;;;;;;4.37;4.07;;;21.00;51.80;;;;;;4179233;28;20551;-77
2022/08/07 09:33:23;;;;;;;22.67;20.73;;;20.80;52.10;;;;;;4178499;28;20198;-75
2022/08/07 09:35:24;;;;;;;9.13;8.53;;;21.20;51.60;;;;;;4183009;28;20680;-77
2022/08/07 09:37:43;;;;;;;5.23;2.43;;;21.60;50.20;;;;;;4184699;28;20196;-73
2022/08/07 09:40:22;;;;;;;55.93;51.27;;;21.30;51.00;;;;;;4183735;28;20210;-75
2022/08/07 09:43:28;;;;;;;3.80;3.13;;;21.30;50.50;;;;;;4149648;28;20698;-77
2022/08/07 09:45:45;;;;;;;4.47;4.20;;;21.40;50.10;;;;;;4149205;28;20186;-77
2022/08/07 09:48:10;;;;;;;4.13;3.93;;;21.60;49.30;;;;;;4176052;28;20259;-77
2022/08/07 09:51:02;;;;;;;5.00;4.60;;;21.90;47.30;;;;;;4182945;28;20516;-76
2022/08/07 09:53:06;;;;;;;35.33;32.77;;;22.00;46.40;;;;;;4171242;28;20180;-72
2022/08/07 09:55:14;;;;;;;16.20;15.03;;;22.20;44.70;;;;;;4166924;28;20231;-75
2022/08/07 09:57:58;;;;;;;4.87;4.60;;;21.90;46.10;;;;;;4198745;28;20175;-74
2022/08/07 10:00:12;;;;;;;24.93;23.17;;;22.10;45.10;;;;;;4183104;28;20180;-74
2022/08/07 10:02:52;;;;;;;2.10;1.90;;;22.40;45.10;;;;;;4181205;28;20204;-75
2022/08/07 10:05:40;;;;;;;2.30;2.10;;;22.50;44.50;;;;;;4168426;28;20204;-76
2022/08/07 10:08:34;;;;;;;14.67;13.90;;;22.90;43.40;;;;;;4182974;28;20251;-81
2022/08/07 10:11:11;;;;;;;6.50;6.10;;;22.60;42.00;;;;;;4147319;28;20767;-79
2022/08/07 10:13:46;;;;;;;17.40;16.43;;;22.00;43.70;;;;;;4182702;28;20230;-78
2022/08/07 10:16:31;;;;;;;2.43;2.30;;;22.50;43.20;;;;;;4182841;28;20243;-77
2022/08/07 10:19:06;;;;;;;3.07;2.90;;;23.10;42.70;;;;;;4187400;28;20199;-79
2022/08/07 10:21:36;;;;;;;9.67;9.13;;;23.90;40.00;;;;;;4171292;28;20172;-78
2022/08/07 10:23:42;;;;;;;26.73;25.13;;;23.90;39.80;;;;;;4189050;28;20180;-79
2022/08/07 10:26:13;;;;;;;3.27;2.60;;;24.30;39.90;;;;;;4183566;28;20188;-80
2022/08/07 10:28:43;;;;;;;3.30;3.10;;;24.40;39.10;;;;;;4192085;28;20552;-79
2022/08/07 10:31:28;;;;;;;9.47;8.87;;;24.70;38.80;;;;;;4190733;28;20192;-79
2022/08/07 10:34:39;;;;;;;2.60;2.40;;;24.60;37.70;;;;;;4189812;28;20257;-79
2022/08/07 10:37:35;;;;;;;4.90;4.33;;;24.70;39.20;;;;;;4140101;28;20188;-79
2022/08/07 10:40:26;;;;;;;608.33;218.17;;;25.40;37.60;;;;;;4140194;28;20205;-79
2022/08/07 10:42:52;;;;;;;293.60;89.37;;;24.20;38.90;;;;;;4181757;28;20254;-77
2022/08/07 10:45:27;;;;;;;6.87;6.40;;;23.70;40.70;;;;;;4171625;28;20173;-77
2022/08/07 10:47:55;;;;;;;14.87;13.70;;;24.40;39.50;;;;;;4183199;28;20619;-73
2022/08/07 10:50:13;;;;;;;17.90;16.27;;;24.80;38.80;;;;;;4180488;28;20670;-79
2022/08/07 10:53:03;;;;;;;5.73;5.23;;;25.70;36.90;;;;;;4169955;28;20208;-78
2022/08/07 10:55:15;;;;;;;68.70;43.23;;;25.50;36.90;;;;;;4176108;28;20207;-79
2022/08/07 10:57:55;;;;;;;10.53;9.47;;;26.40;34.60;;;;;;4190535;28;20172;-79
2022/08/07 11:00:07;;;;;;;36.93;13.83;;;26.10;36.60;;;;;;4181094;28;20172;-75
2022/08/07 11:02:49;;;;;;;2.60;2.40;;;26.10;35.10;;;;;;4181048;28;20211;-78
2022/08/07 11:04:56;;;;;;;3.30;2.60;;;25.50;36.80;;;;;;4167545;28;20204;-77
2022/08/07 11:07:21;;;;;;;215.13;95.70;;;25.70;36.30;;;;;;4182793;28;20172;-76
2022/08/07 11:09:29;;;;;;;37.73;35.13;;;26.40;35.20;;;;;;4179043;28;20188;-76